Terminal Aerodrome Forecast
Issued by NWS Wilmington, OH

Current Version | Previous Version | Text Only | Print | Product List | Glossary Off
Versions: 1 2 3 4 5 6 7 8 9 10 11 12 13 14 15 16 17 18 19 20

897
FTUS41 KILN 241121
TAFDAY
TAF
KDAY 241121Z 2412/2512 15006KT P6SM OVC150
      TEMPO 2412/2414 5SM BR BKN004
     FM241500 11006KT P6SM VCSH OVC040
     FM242000 08007KT 4SM SHRA OVC025
     FM250300 09006KT 4SM BR VCSH OVC015
     FM250600 19008KT 4SM BR VCSH OVC009=

USA.gov is the U.S. government's official web portal to all federal, state and local government web resources and services.